Thetford Center, VT (05075)

11:32 AM EDT on August 30, 2015 (GMT -0400)
Stone House Farm | | Change Station
CLOSE
Current Station
Personal Weather Station
Location: Strafford, VT
Elevation: 1230 ft
Nearby Weather Stations

Elev 1230 ft 43.83 °N, 72.34 °W | Updated 18 seconds ago

Clear
Clear
77.0 °F
Feels Like 79 °F
N
5.0
Wind Variable Wind from SSW
Gusts 5.0 mph

Today
High -- | Low -- °F
--% Chance of Precip.
Yesterday
High -- | Low -- °F
Precip. -- in
6:09 AM 7:28 PM
Full, 99% visible
Pressure 30.06 in
Visibility 10.0 miles
Clouds Clear
Heat Index 79 °F
Dew Point 61 °F
Humidity 59%
Rainfall 0.00 in
Snow Depth Not available.
UV 7 out of 12
Pollen 8.50 out of 12
Air Quality Not available.
Flu Activity Not available.
METAR KLEB 301453Z 00000KT 10SM CLR 24/15 A3008 RMK AO2 SLP179 T02390150 58001
Pressure 30.06 in
Visibility 10.0 miles
Clouds Clear
Heat Index 79 °F
Dew Point 61 °F
Humidity 59%
Rainfall 0.00 in
Snow Depth Not available.
UV 7 out of 12
Pollen 8.50 out of 12
Air Quality Not available.
Flu Activity Not available.
METAR KLEB 301453Z 00000KT 10SM CLR 24/15 A3008 RMK AO2 SLP179 T02390150 58001

10-Day Weather Forecast

×

Almanac

Astronomy

Aug. 30, 2015 Rise Set
Actual Time
Civil Twilight
Nautical Twilight
Astronomical Twilight
Moon
Length of Visible Light
Length of Day
Tomorrow will be .
, % of the Moon is Illuminated

Today's Extremes

State Highs State Lows

Community

WunderPhotos

Upload Photos

1,850,996 photos uploaded!

WunderBlogs® & News

Nearby

Air Quality

  Air Quality AQ Index Pollutant
Not available.

Snow Depth

Station Depth Elevation

Earthquake Activity

City Distance Mag. Time & Date
Minimum magnitude displayed is 2.5.

Coastal Water Temperatures

Place Temperature

Stations

Nearby Weather Stations

Station Location Temp. Windchill Dew Point Humidity Wind Precip. Elev Updated Type